sensor_id;sensor_type;location;lat;lon;timestamp;P1;durP1;ratioP1;P2;durP2;ratioP2
68655;SDS011;55638;51.122;13.606;2023-07-08T00:01:25;3.92;;;3.20;;
68655;SDS011;55638;51.122;13.606;2023-07-08T00:02:57;4.97;;;2.92;;
68655;SDS011;55638;51.122;13.606;2023-07-08T00:04:29;3.13;;;2.60;;
68655;SDS011;55638;51.122;13.606;2023-07-08T00:06:01;4.03;;;2.88;;
68655;SDS011;55638;51.122;13.606;2023-07-08T00:07:33;3.30;;;3.00;;
68655;SDS011;55638;51.122;13.606;2023-07-08T00:09:07;4.38;;;3.00;;
68655;SDS011;55638;51.122;13.606;2023-07-08T00:10:42;3.35;;;3.00;;
68655;SDS011;55638;51.122;13.606;2023-07-08T00:12:15;3.55;;;2.83;;
68655;SDS011;55638;51.122;13.606;2023-07-08T00:13:46;4.53;;;2.88;;
68655;SDS011;55638;51.122;13.606;2023-07-08T00:15:23;3.38;;;2.88;;
68655;SDS011;55638;51.122;13.606;2023-07-08T00:16:58;2.97;;;2.60;;
68655;SDS011;55638;51.122;13.606;2023-07-08T00:18:30;4.03;;;3.10;;
68655;SDS011;55638;51.122;13.606;2023-07-08T00:20:07;3.63;;;3.10;;
68655;SDS011;55638;51.122;13.606;2023-07-08T00:23:15;3.85;;;3.00;;
68655;SDS011;55638;51.122;13.606;2023-07-08T00:24:47;3.38;;;2.70;;
68655;SDS011;55638;51.122;13.606;2023-07-08T00:26:22;3.33;;;2.92;;
68655;SDS011;55638;51.122;13.606;2023-07-08T00:27:56;3.78;;;2.92;;
68655;SDS011;55638;51.122;13.606;2023-07-08T00:29:29;3.08;;;2.75;;
68655;SDS011;55638;51.122;13.606;2023-07-08T00:31:01;3.90;;;2.95;;
68655;SDS011;55638;51.122;13.606;2023-07-08T00:32:33;4.38;;;2.90;;
68655;SDS011;55638;51.122;13.606;2023-07-08T00:34:05;3.35;;;2.75;;
68655;SDS011;55638;51.122;13.606;2023-07-08T00:35:38;3.40;;;2.97;;
68655;SDS011;55638;51.122;13.606;2023-07-08T00:37:12;2.90;;;2.50;;
68655;SDS011;55638;51.122;13.606;2023-07-08T00:38:44;3.25;;;2.90;;
68655;SDS011;55638;51.122;13.606;2023-07-08T00:40:17;3.38;;;2.95;;
68655;SDS011;55638;51.122;13.606;2023-07-08T00:41:51;2.83;;;2.53;;
68655;SDS011;55638;51.122;13.606;2023-07-08T00:45:44;3.03;;;2.72;;
68655;SDS011;55638;51.122;13.606;2023-07-08T00:47:33;2.72;;;2.50;;
68655;SDS011;55638;51.122;13.606;2023-07-08T00:50:40;4.15;;;3.10;;
68655;SDS011;55638;51.122;13.606;2023-07-08T00:53:57;4.10;;;3.15;;
68655;SDS011;55638;51.122;13.606;2023-07-08T00:55:29;4.63;;;3.15;;
68655;SDS011;55638;51.122;13.606;2023-07-08T00:57:01;7.13;;;3.38;;
68655;SDS011;55638;51.122;13.606;2023-07-08T00:58:37;4.68;;;3.10;;
68655;SDS011;55638;51.122;13.606;2023-07-08T01:00:14;5.07;;;2.78;;
68655;SDS011;55638;51.122;13.606;2023-07-08T01:01:50;3.90;;;3.00;;
68655;SDS011;55638;51.122;13.606;2023-07-08T01:03:23;3.47;;;2.92;;
68655;SDS011;55638;51.122;13.606;2023-07-08T01:06:44;3.25;;;2.60;;
68655;SDS011;55638;51.122;13.606;2023-07-08T01:08:19;2.80;;;2.50;;
68655;SDS011;55638;51.122;13.606;2023-07-08T01:10:06;3.37;;;2.93;;
68655;SDS011;55638;51.122;13.606;2023-07-08T01:11:44;2.88;;;2.40;;
68655;SDS011;55638;51.122;13.606;2023-07-08T01:13:16;3.63;;;2.67;;
68655;SDS011;55638;51.122;13.606;2023-07-08T01:14:49;3.45;;;2.83;;
68655;SDS011;55638;51.122;13.606;2023-07-08T01:16:25;4.18;;;3.15;;
68655;SDS011;55638;51.122;13.606;2023-07-08T01:17:57;3.35;;;2.70;;
68655;SDS011;55638;51.122;13.606;2023-07-08T01:19:29;4.70;;;3.05;;
68655;SDS011;55638;51.122;13.606;2023-07-08T01:21:06;2.90;;;2.58;;
68655;SDS011;55638;51.122;13.606;2023-07-08T01:23:10;2.80;;;2.30;;
68655;SDS011;55638;51.122;13.606;2023-07-08T01:24:43;3.25;;;2.58;;
68655;SDS011;55638;51.122;13.606;2023-07-08T01:26:16;2.88;;;2.58;;
68655;SDS011;55638;51.122;13.606;2023-07-08T01:27:49;2.97;;;2.50;;
68655;SDS011;55638;51.122;13.606;2023-07-08T01:29:25;3.35;;;2.72;;
68655;SDS011;55638;51.122;13.606;2023-07-08T01:30:57;3.13;;;2.60;;
68655;SDS011;55638;51.122;13.606;2023-07-08T01:32:30;3.60;;;3.00;;
68655;SDS011;55638;51.122;13.606;2023-07-08T01:34:05;3.90;;;2.90;;
68655;SDS011;55638;51.122;13.606;2023-07-08T01:35:41;3.58;;;2.65;;
68655;SDS011;55638;51.122;13.606;2023-07-08T01:37:13;2.95;;;2.35;;
68655;SDS011;55638;51.122;13.606;2023-07-08T01:38:45;3.63;;;2.70;;
68655;SDS011;55638;51.122;13.606;2023-07-08T01:40:25;3.47;;;2.72;;
68655;SDS011;55638;51.122;13.606;2023-07-08T01:41:58;2.92;;;2.50;;
68655;SDS011;55638;51.122;13.606;2023-07-08T01:43:30;3.30;;;2.75;;
68655;SDS011;55638;51.122;13.606;2023-07-08T01:45:07;3.58;;;2.50;;
68655;SDS011;55638;51.122;13.606;2023-07-08T01:46:45;2.95;;;2.70;;
68655;SDS011;55638;51.122;13.606;2023-07-08T01:48:21;3.90;;;2.72;;
68655;SDS011;55638;51.122;13.606;2023-07-08T01:49:54;3.85;;;2.50;;
68655;SDS011;55638;51.122;13.606;2023-07-08T01:51:26;3.88;;;2.95;;
68655;SDS011;55638;51.122;13.606;2023-07-08T01:53:00;2.75;;;2.40;;
68655;SDS011;55638;51.122;13.606;2023-07-08T01:54:38;3.28;;;2.65;;
68655;SDS011;55638;51.122;13.606;2023-07-08T01:56:10;2.92;;;2.40;;
68655;SDS011;55638;51.122;13.606;2023-07-08T01:57:43;2.97;;;2.30;;
68655;SDS011;55638;51.122;13.606;2023-07-08T01:59:15;3.65;;;2.63;;
68655;SDS011;55638;51.122;13.606;2023-07-08T02:00:47;3.70;;;2.17;;
68655;SDS011;55638;51.122;13.606;2023-07-08T02:02:20;3.42;;;2.75;;
68655;SDS011;55638;51.122;13.606;2023-07-08T02:03:53;2.60;;;2.25;;
68655;SDS011;55638;51.122;13.606;2023-07-08T02:05:25;2.70;;;2.47;;
68655;SDS011;55638;51.122;13.606;2023-07-08T02:06:58;3.80;;;2.30;;
68655;SDS011;55638;51.122;13.606;2023-07-08T02:08:31;2.97;;;2.45;;
68655;SDS011;55638;51.122;13.606;2023-07-08T02:10:03;3.67;;;2.28;;
68655;SDS011;55638;51.122;13.606;2023-07-08T02:11:37;3.95;;;2.65;;
68655;SDS011;55638;51.122;13.606;2023-07-08T02:13:09;3.05;;;2.40;;
68655;SDS011;55638;51.122;13.606;2023-07-08T02:14:41;3.30;;;2.50;;
68655;SDS011;55638;51.122;13.606;2023-07-08T02:16:13;4.40;;;2.80;;
68655;SDS011;55638;51.122;13.606;2023-07-08T02:17:45;3.58;;;3.00;;
68655;SDS011;55638;51.122;13.606;2023-07-08T02:19:18;3.60;;;2.58;;
68655;SDS011;55638;51.122;13.606;2023-07-08T02:20:51;3.03;;;2.63;;
68655;SDS011;55638;51.122;13.606;2023-07-08T02:22:23;4.15;;;2.78;;
68655;SDS011;55638;51.122;13.606;2023-07-08T02:23:55;3.15;;;2.50;;
68655;SDS011;55638;51.122;13.606;2023-07-08T02:25:27;3.47;;;2.28;;
68655;SDS011;55638;51.122;13.606;2023-07-08T02:27:00;3.38;;;2.33;;
68655;SDS011;55638;51.122;13.606;2023-07-08T02:28:32;3.80;;;2.50;;
68655;SDS011;55638;51.122;13.606;2023-07-08T02:30:04;3.58;;;2.65;;
68655;SDS011;55638;51.122;13.606;2023-07-08T02:31:37;4.35;;;2.80;;
68655;SDS011;55638;51.122;13.606;2023-07-08T02:33:09;3.83;;;2.65;;
68655;SDS011;55638;51.122;13.606;2023-07-08T02:34:41;4.60;;;2.53;;
68655;SDS011;55638;51.122;13.606;2023-07-08T02:36:13;3.85;;;2.60;;
68655;SDS011;55638;51.122;13.606;2023-07-08T02:37:45;3.65;;;2.42;;
68655;SDS011;55638;51.122;13.606;2023-07-08T02:39:17;4.13;;;2.78;;
68655;SDS011;55638;51.122;13.606;2023-07-08T02:40:48;2.60;;;2.40;;
68655;SDS011;55638;51.122;13.606;2023-07-08T02:42:20;3.05;;;2.58;;
68655;SDS011;55638;51.122;13.606;2023-07-08T02:43:52;3.80;;;2.67;;
68655;SDS011;55638;51.122;13.606;2023-07-08T02:45:24;2.90;;;2.60;;
68655;SDS011;55638;51.122;13.606;2023-07-08T02:46:57;3.25;;;2.60;;
68655;SDS011;55638;51.122;13.606;2023-07-08T02:48:29;3.42;;;2.70;;
68655;SDS011;55638;51.122;13.606;2023-07-08T02:50:01;3.40;;;2.72;;
68655;SDS011;55638;51.122;13.606;2023-07-08T02:51:33;3.22;;;2.58;;
68655;SDS011;55638;51.122;13.606;2023-07-08T02:53:05;3.55;;;2.72;;
68655;SDS011;55638;51.122;13.606;2023-07-08T02:54:37;3.17;;;2.47;;
68655;SDS011;55638;51.122;13.606;2023-07-08T02:56:09;3.10;;;2.80;;
68655;SDS011;55638;51.122;13.606;2023-07-08T02:57:41;6.07;;;2.50;;
68655;SDS011;55638;51.122;13.606;2023-07-08T02:59:13;4.22;;;2.50;;
68655;SDS011;55638;51.122;13.606;2023-07-08T03:00:44;3.17;;;2.63;;
68655;SDS011;55638;51.122;13.606;2023-07-08T03:02:16;3.33;;;2.60;;
68655;SDS011;55638;51.122;13.606;2023-07-08T03:03:48;2.78;;;2.45;;
68655;SDS011;55638;51.122;13.606;2023-07-08T03:05:21;3.28;;;2.63;;
68655;SDS011;55638;51.122;13.606;2023-07-08T03:06:53;3.08;;;2.78;;
68655;SDS011;55638;51.122;13.606;2023-07-08T03:08:25;3.40;;;2.63;;
68655;SDS011;55638;51.122;13.606;2023-07-08T03:09:58;3.92;;;2.80;;
68655;SDS011;55638;51.122;13.606;2023-07-08T03:11:30;3.35;;;2.75;;
68655;SDS011;55638;51.122;13.606;2023-07-08T03:13:01;3.33;;;2.63;;
68655;SDS011;55638;51.122;13.606;2023-07-08T03:14:35;3.90;;;2.58;;
68655;SDS011;55638;51.122;13.606;2023-07-08T03:16:07;3.00;;;2.65;;
68655;SDS011;55638;51.122;13.606;2023-07-08T03:17:44;3.03;;;2.63;;
68655;SDS011;55638;51.122;13.606;2023-07-08T03:19:17;2.90;;;2.60;;
68655;SDS011;55638;51.122;13.606;2023-07-08T03:20:49;2.85;;;2.35;;
68655;SDS011;55638;51.122;13.606;2023-07-08T03:22:21;3.25;;;2.63;;
68655;SDS011;55638;51.122;13.606;2023-07-08T03:23:53;2.45;;;2.20;;
68655;SDS011;55638;51.122;13.606;2023-07-08T03:25:25;3.63;;;2.67;;
68655;SDS011;55638;51.122;13.606;2023-07-08T03:26:57;2.90;;;2.58;;
68655;SDS011;55638;51.122;13.606;2023-07-08T03:28:31;2.70;;;2.50;;
68655;SDS011;55638;51.122;13.606;2023-07-08T03:30:04;3.22;;;2.65;;
68655;SDS011;55638;51.122;13.606;2023-07-08T03:31:38;4.78;;;3.17;;
68655;SDS011;55638;51.122;13.606;2023-07-08T03:33:12;4.03;;;2.85;;
68655;SDS011;55638;51.122;13.606;2023-07-08T03:34:45;5.57;;;2.90;;
68655;SDS011;55638;51.122;13.606;2023-07-08T03:36:17;3.00;;;2.65;;
68655;SDS011;55638;51.122;13.606;2023-07-08T03:37:56;3.63;;;2.58;;
68655;SDS011;55638;51.122;13.606;2023-07-08T03:39:28;3.25;;;2.78;;
68655;SDS011;55638;51.122;13.606;2023-07-08T03:41:01;3.17;;;2.58;;
68655;SDS011;55638;51.122;13.606;2023-07-08T03:42:33;3.35;;;2.70;;
68655;SDS011;55638;51.122;13.606;2023-07-08T03:44:06;2.67;;;2.30;;
68655;SDS011;55638;51.122;13.606;2023-07-08T03:45:38;3.90;;;2.83;;
68655;SDS011;55638;51.122;13.606;2023-07-08T03:47:12;4.55;;;2.42;;
68655;SDS011;55638;51.122;13.606;2023-07-08T03:48:44;3.58;;;2.30;;
68655;SDS011;55638;51.122;13.606;2023-07-08T03:50:22;3.88;;;2.40;;
68655;SDS011;55638;51.122;13.606;2023-07-08T03:51:56;2.95;;;2.65;;
68655;SDS011;55638;51.122;13.606;2023-07-08T03:53:28;5.00;;;2.65;;
68655;SDS011;55638;51.122;13.606;2023-07-08T03:55:00;3.13;;;2.63;;
68655;SDS011;55638;51.122;13.606;2023-07-08T03:56:33;2.92;;;2.50;;
68655;SDS011;55638;51.122;13.606;2023-07-08T03:58:06;2.90;;;2.60;;
68655;SDS011;55638;51.122;13.606;2023-07-08T03:59:39;3.63;;;2.78;;
68655;SDS011;55638;51.122;13.606;2023-07-08T04:01:13;3.00;;;2.40;;
68655;SDS011;55638;51.122;13.606;2023-07-08T04:02:48;3.72;;;2.78;;
68655;SDS011;55638;51.122;13.606;2023-07-08T04:04:24;3.55;;;2.50;;
68655;SDS011;55638;51.122;13.606;2023-07-08T04:05:56;2.75;;;2.50;;
68655;SDS011;55638;51.122;13.606;2023-07-08T04:07:28;3.30;;;2.90;;
68655;SDS011;55638;51.122;13.606;2023-07-08T04:09:00;2.78;;;2.47;;
68655;SDS011;55638;51.122;13.606;2023-07-08T04:10:32;2.67;;;2.47;;
68655;SDS011;55638;51.122;13.606;2023-07-08T04:12:04;3.75;;;2.58;;
68655;SDS011;55638;51.122;13.606;2023-07-08T04:13:36;3.63;;;2.50;;
68655;SDS011;55638;51.122;13.606;2023-07-08T04:15:08;3.78;;;2.70;;
68655;SDS011;55638;51.122;13.606;2023-07-08T04:16:43;3.00;;;2.72;;
68655;SDS011;55638;51.122;13.606;2023-07-08T04:18:23;3.00;;;2.40;;
68655;SDS011;55638;51.122;13.606;2023-07-08T04:19:55;3.33;;;2.63;;
68655;SDS011;55638;51.122;13.606;2023-07-08T04:21:28;5.00;;;2.70;;
68655;SDS011;55638;51.122;13.606;2023-07-08T04:23:01;3.00;;;2.33;;
68655;SDS011;55638;51.122;13.606;2023-07-08T04:24:33;2.75;;;2.33;;
68655;SDS011;55638;51.122;13.606;2023-07-08T04:26:05;3.10;;;2.53;;
68655;SDS011;55638;51.122;13.606;2023-07-08T04:27:39;3.20;;;2.60;;
68655;SDS011;55638;51.122;13.606;2023-07-08T04:29:12;5.57;;;2.80;;
68655;SDS011;55638;51.122;13.606;2023-07-08T04:30:47;3.65;;;2.63;;
68655;SDS011;55638;51.122;13.606;2023-07-08T04:32:19;4.97;;;2.88;;
68655;SDS011;55638;51.122;13.606;2023-07-08T04:33:51;6.90;;;2.90;;
68655;SDS011;55638;51.122;13.606;2023-07-08T04:35:23;3.50;;;3.20;;
68655;SDS011;55638;51.122;13.606;2023-07-08T04:36:55;5.05;;;2.55;;
68655;SDS011;55638;51.122;13.606;2023-07-08T04:38:27;3.83;;;2.60;;
68655;SDS011;55638;51.122;13.606;2023-07-08T04:39:59;2.63;;;2.35;;
68655;SDS011;55638;51.122;13.606;2023-07-08T04:41:32;3.55;;;2.60;;
68655;SDS011;55638;51.122;13.606;2023-07-08T04:43:04;4.32;;;2.92;;
68655;SDS011;55638;51.122;13.606;2023-07-08T04:44:36;3.10;;;2.80;;
68655;SDS011;55638;51.122;13.606;2023-07-08T04:46:19;4.22;;;2.85;;
68655;SDS011;55638;51.122;13.606;2023-07-08T04:47:57;3.45;;;2.60;;
68655;SDS011;55638;51.122;13.606;2023-07-08T04:49:29;3.85;;;2.78;;
68655;SDS011;55638;51.122;13.606;2023-07-08T04:51:03;3.17;;;2.75;;
68655;SDS011;55638;51.122;13.606;2023-07-08T04:52:35;3.15;;;2.83;;
68655;SDS011;55638;51.122;13.606;2023-07-08T04:54:07;4.22;;;3.22;;
68655;SDS011;55638;51.122;13.606;2023-07-08T04:55:40;5.00;;;2.92;;
68655;SDS011;55638;51.122;13.606;2023-07-08T04:57:15;10.52;;;3.20;;
68655;SDS011;55638;51.122;13.606;2023-07-08T04:58:48;3.53;;;2.65;;
68655;SDS011;55638;51.122;13.606;2023-07-08T05:00:20;2.55;;;2.35;;
68655;SDS011;55638;51.122;13.606;2023-07-08T05:01:52;3.85;;;2.45;;
68655;SDS011;55638;51.122;13.606;2023-07-08T05:03:25;3.00;;;2.40;;
68655;SDS011;55638;51.122;13.606;2023-07-08T05:04:57;4.60;;;2.67;;
68655;SDS011;55638;51.122;13.606;2023-07-08T05:06:28;2.72;;;2.53;;
68655;SDS011;55638;51.122;13.606;2023-07-08T05:08:00;3.88;;;2.35;;
68655;SDS011;55638;51.122;13.606;2023-07-08T05:09:32;3.85;;;2.80;;
68655;SDS011;55638;51.122;13.606;2023-07-08T05:11:04;4.47;;;2.38;;
68655;SDS011;55638;51.122;13.606;2023-07-08T05:12:36;2.50;;;2.30;;
68655;SDS011;55638;51.122;13.606;2023-07-08T05:14:08;4.05;;;2.67;;
68655;SDS011;55638;51.122;13.606;2023-07-08T05:15:40;3.38;;;2.80;;
68655;SDS011;55638;51.122;13.606;2023-07-08T05:17:12;3.17;;;2.30;;
68655;SDS011;55638;51.122;13.606;2023-07-08T05:18:44;3.47;;;2.20;;
68655;SDS011;55638;51.122;13.606;2023-07-08T05:20:17;4.80;;;2.80;;
68655;SDS011;55638;51.122;13.606;2023-07-08T05:21:50;2.95;;;2.58;;
68655;SDS011;55638;51.122;13.606;2023-07-08T05:23:22;4.05;;;2.53;;
68655;SDS011;55638;51.122;13.606;2023-07-08T05:24:54;3.13;;;2.58;;
68655;SDS011;55638;51.122;13.606;2023-07-08T05:26:29;4.05;;;2.50;;
68655;SDS011;55638;51.122;13.606;2023-07-08T05:28:01;2.95;;;2.35;;
68655;SDS011;55638;51.122;13.606;2023-07-08T05:29:33;2.60;;;2.40;;
68655;SDS011;55638;51.122;13.606;2023-07-08T05:31:05;2.95;;;2.65;;
68655;SDS011;55638;51.122;13.606;2023-07-08T05:32:37;2.65;;;2.30;;
68655;SDS011;55638;51.122;13.606;2023-07-08T05:34:09;2.65;;;2.45;;
68655;SDS011;55638;51.122;13.606;2023-07-08T05:35:41;2.95;;;2.33;;
68655;SDS011;55638;51.122;13.606;2023-07-08T05:37:13;3.20;;;2.65;;
68655;SDS011;55638;51.122;13.606;2023-07-08T05:38:45;4.00;;;2.60;;
68655;SDS011;55638;51.122;13.606;2023-07-08T05:40:17;3.90;;;2.80;;
68655;SDS011;55638;51.122;13.606;2023-07-08T05:41:49;3.40;;;2.50;;
68655;SDS011;55638;51.122;13.606;2023-07-08T05:43:21;3.22;;;2.50;;
68655;SDS011;55638;51.122;13.606;2023-07-08T05:44:53;2.63;;;2.42;;
68655;SDS011;55638;51.122;13.606;2023-07-08T05:46:26;4.45;;;2.50;;
68655;SDS011;55638;51.122;13.606;2023-07-08T05:47:58;2.33;;;2.10;;
68655;SDS011;55638;51.122;13.606;2023-07-08T05:49:30;2.40;;;2.00;;
68655;SDS011;55638;51.122;13.606;2023-07-08T05:51:02;2.58;;;2.10;;
68655;SDS011;55638;51.122;13.606;2023-07-08T05:52:34;5.55;;;2.72;;
68655;SDS011;55638;51.122;13.606;2023-07-08T05:54:06;2.40;;;2.05;;
68655;SDS011;55638;51.122;13.606;2023-07-08T05:55:39;3.45;;;2.25;;
68655;SDS011;55638;51.122;13.606;2023-07-08T05:57:14;5.03;;;2.40;;
68655;SDS011;55638;51.122;13.606;2023-07-08T05:58:45;4.30;;;2.20;;
68655;SDS011;55638;51.122;13.606;2023-07-08T06:00:17;2.42;;;1.80;;
68655;SDS011;55638;51.122;13.606;2023-07-08T06:02:09;2.38;;;2.17;;
68655;SDS011;55638;51.122;13.606;2023-07-08T06:03:42;3.40;;;2.08;;
68655;SDS011;55638;51.122;13.606;2023-07-08T06:05:14;3.70;;;2.20;;
68655;SDS011;55638;51.122;13.606;2023-07-08T06:06:46;3.05;;;2.47;;
68655;SDS011;55638;51.122;13.606;2023-07-08T06:08:18;2.38;;;2.17;;
68655;SDS011;55638;51.122;13.606;2023-07-08T06:09:50;2.60;;;2.20;;
68655;SDS011;55638;51.122;13.606;2023-07-08T06:11:22;2.15;;;1.95;;
68655;SDS011;55638;51.122;13.606;2023-07-08T06:12:54;2.88;;;2.30;;
68655;SDS011;55638;51.122;13.606;2023-07-08T06:14:26;2.33;;;2.13;;
68655;SDS011;55638;51.122;13.606;2023-07-08T06:15:59;2.17;;;1.98;;
68655;SDS011;55638;51.122;13.606;2023-07-08T06:17:31;2.65;;;1.92;;
68655;SDS011;55638;51.122;13.606;2023-07-08T06:19:03;2.22;;;2.00;;
68655;SDS011;55638;51.122;13.606;2023-07-08T06:20:35;3.25;;;2.00;;
68655;SDS011;55638;51.122;13.606;2023-07-08T06:22:07;4.22;;;2.28;;
68655;SDS011;55638;51.122;13.606;2023-07-08T06:23:59;2.20;;;1.98;;
68655;SDS011;55638;51.122;13.606;2023-07-08T06:25:31;2.20;;;1.98;;
68655;SDS011;55638;51.122;13.606;2023-07-08T06:27:04;2.33;;;1.95;;
68655;SDS011;55638;51.122;13.606;2023-07-08T06:28:36;3.13;;;2.17;;
68655;SDS011;55638;51.122;13.606;2023-07-08T06:30:08;2.10;;;1.90;;
68655;SDS011;55638;51.122;13.606;2023-07-08T06:31:40;2.15;;;1.95;;
68655;SDS011;55638;51.122;13.606;2023-07-08T06:33:12;2.78;;;2.08;;
68655;SDS011;55638;51.122;13.606;2023-07-08T06:34:44;2.42;;;2.20;;
68655;SDS011;55638;51.122;13.606;2023-07-08T06:36:16;2.78;;;2.30;;
68655;SDS011;55638;51.122;13.606;2023-07-08T06:37:48;2.25;;;1.85;;
68655;SDS011;55638;51.122;13.606;2023-07-08T06:39:20;2.20;;;2.00;;
68655;SDS011;55638;51.122;13.606;2023-07-08T06:40:52;2.03;;;1.77;;
68655;SDS011;55638;51.122;13.606;2023-07-08T06:42:24;2.67;;;2.20;;
68655;SDS011;55638;51.122;13.606;2023-07-08T06:44:13;2.28;;;1.80;;
68655;SDS011;55638;51.122;13.606;2023-07-08T06:45:45;2.55;;;2.10;;
68655;SDS011;55638;51.122;13.606;2023-07-08T06:47:17;2.20;;;2.00;;
68655;SDS011;55638;51.122;13.606;2023-07-08T06:48:51;3.45;;;1.98;;
68655;SDS011;55638;51.122;13.606;2023-07-08T06:50:25;3.13;;;2.10;;
68655;SDS011;55638;51.122;13.606;2023-07-08T06:51:57;2.25;;;1.70;;
68655;SDS011;55638;51.122;13.606;2023-07-08T06:53:31;2.33;;;1.85;;
68655;SDS011;55638;51.122;13.606;2023-07-08T06:55:05;1.90;;;1.70;;
68655;SDS011;55638;51.122;13.606;2023-07-08T06:56:38;2.25;;;2.00;;
68655;SDS011;55638;51.122;13.606;2023-07-08T06:58:11;2.17;;;1.98;;
68655;SDS011;55638;51.122;13.606;2023-07-08T06:59:44;3.92;;;1.77;;
68655;SDS011;55638;51.122;13.606;2023-07-08T07:01:15;2.13;;;1.92;;
68655;SDS011;55638;51.122;13.606;2023-07-08T07:02:47;2.00;;;1.80;;
68655;SDS011;55638;51.122;13.606;2023-07-08T07:04:19;2.88;;;2.33;;
68655;SDS011;55638;51.122;13.606;2023-07-08T07:05:51;3.55;;;1.98;;
68655;SDS011;55638;51.122;13.606;2023-07-08T07:07:23;2.17;;;1.88;;
68655;SDS011;55638;51.122;13.606;2023-07-08T07:08:55;2.38;;;2.17;;
68655;SDS011;55638;51.122;13.606;2023-07-08T07:10:27;2.25;;;1.90;;
68655;SDS011;55638;51.122;13.606;2023-07-08T07:11:59;2.92;;;2.20;;
68655;SDS011;55638;51.122;13.606;2023-07-08T07:13:31;3.38;;;2.00;;
68655;SDS011;55638;51.122;13.606;2023-07-08T07:15:04;2.72;;;2.00;;
68655;SDS011;55638;51.122;13.606;2023-07-08T07:16:37;2.33;;;2.13;;
68655;SDS011;55638;51.122;13.606;2023-07-08T07:18:09;3.45;;;2.30;;
68655;SDS011;55638;51.122;13.606;2023-07-08T07:19:41;2.10;;;1.77;;
68655;SDS011;55638;51.122;13.606;2023-07-08T07:21:13;2.50;;;2.30;;
68655;SDS011;55638;51.122;13.606;2023-07-08T07:22:45;2.08;;;1.88;;
68655;SDS011;55638;51.122;13.606;2023-07-08T07:24:17;2.72;;;2.10;;
68655;SDS011;55638;51.122;13.606;2023-07-08T07:25:49;3.88;;;2.05;;
68655;SDS011;55638;51.122;13.606;2023-07-08T07:27:22;2.58;;;1.90;;
68655;SDS011;55638;51.122;13.606;2023-07-08T07:28:53;2.35;;;2.15;;
68655;SDS011;55638;51.122;13.606;2023-07-08T07:30:25;2.20;;;1.95;;
68655;SDS011;55638;51.122;13.606;2023-07-08T07:31:57;2.42;;;1.73;;
68655;SDS011;55638;51.122;13.606;2023-07-08T07:33:29;2.20;;;2.00;;
68655;SDS011;55638;51.122;13.606;2023-07-08T07:35:01;2.60;;;2.03;;
68655;SDS011;55638;51.122;13.606;2023-07-08T07:36:33;2.17;;;1.98;;
68655;SDS011;55638;51.122;13.606;2023-07-08T07:38:06;2.17;;;1.98;;
68655;SDS011;55638;51.122;13.606;2023-07-08T07:39:37;2.78;;;2.00;;
68655;SDS011;55638;51.122;13.606;2023-07-08T07:41:09;2.13;;;1.95;;
68655;SDS011;55638;51.122;13.606;2023-07-08T07:42:43;2.33;;;2.10;;
68655;SDS011;55638;51.122;13.606;2023-07-08T07:44:16;2.50;;;2.00;;
68655;SDS011;55638;51.122;13.606;2023-07-08T07:45:49;3.72;;;2.08;;
68655;SDS011;55638;51.122;13.606;2023-07-08T07:47:24;2.58;;;2.38;;
68655;SDS011;55638;51.122;13.606;2023-07-08T07:48:58;2.00;;;1.80;;
68655;SDS011;55638;51.122;13.606;2023-07-08T07:50:30;9.13;;;2.60;;
68655;SDS011;55638;51.122;13.606;2023-07-08T07:52:03;36.67;;;4.10;;
68655;SDS011;55638;51.122;13.606;2023-07-08T07:53:35;3.13;;;1.88;;
68655;SDS011;55638;51.122;13.606;2023-07-08T07:55:09;2.63;;;2.13;;
68655;SDS011;55638;51.122;13.606;2023-07-08T07:56:41;2.53;;;2.30;;
68655;SDS011;55638;51.122;13.606;2023-07-08T07:58:12;3.10;;;2.15;;
68655;SDS011;55638;51.122;13.606;2023-07-08T07:59:45;3.15;;;2.03;;
68655;SDS011;55638;51.122;13.606;2023-07-08T08:01:17;3.10;;;2.05;;
68655;SDS011;55638;51.122;13.606;2023-07-08T08:02:51;2.13;;;1.77;;
68655;SDS011;55638;51.122;13.606;2023-07-08T08:04:23;2.85;;;2.17;;
68655;SDS011;55638;51.122;13.606;2023-07-08T08:05:55;2.00;;;1.80;;
68655;SDS011;55638;51.122;13.606;2023-07-08T08:07:27;2.83;;;2.17;;
68655;SDS011;55638;51.122;13.606;2023-07-08T08:08:59;2.05;;;1.77;;
68655;SDS011;55638;51.122;13.606;2023-07-08T08:10:31;2.40;;;2.20;;
68655;SDS011;55638;51.122;13.606;2023-07-08T08:12:09;3.03;;;2.20;;
68655;SDS011;55638;51.122;13.606;2023-07-08T08:13:42;4.13;;;1.92;;
68655;SDS011;55638;51.122;13.606;2023-07-08T08:15:14;1.95;;;1.75;;
68655;SDS011;55638;51.122;13.606;2023-07-08T08:16:46;2.03;;;1.80;;
68655;SDS011;55638;51.122;13.606;2023-07-08T08:18:18;1.85;;;1.75;;
68655;SDS011;55638;51.122;13.606;2023-07-08T08:19:50;2.40;;;2.20;;
68655;SDS011;55638;51.122;13.606;2023-07-08T08:21:22;2.92;;;2.13;;
68655;SDS011;55638;51.122;13.606;2023-07-08T08:22:54;3.05;;;2.10;;
68655;SDS011;55638;51.122;13.606;2023-07-08T08:24:26;2.63;;;2.42;;
68655;SDS011;55638;51.122;13.606;2023-07-08T08:25:58;2.38;;;2.00;;
68655;SDS011;55638;51.122;13.606;2023-07-08T08:27:31;1.70;;;1.60;;
68655;SDS011;55638;51.122;13.606;2023-07-08T08:29:03;2.20;;;2.00;;
68655;SDS011;55638;51.122;13.606;2023-07-08T08:30:35;5.50;;;2.50;;
68655;SDS011;55638;51.122;13.606;2023-07-08T08:32:07;2.60;;;2.15;;
68655;SDS011;55638;51.122;13.606;2023-07-08T08:33:39;2.38;;;2.10;;
68655;SDS011;55638;51.122;13.606;2023-07-08T08:35:11;2.42;;;2.22;;
68655;SDS011;55638;51.122;13.606;2023-07-08T08:36:43;2.78;;;2.30;;
68655;SDS011;55638;51.122;13.606;2023-07-08T08:38:15;2.65;;;2.42;;
68655;SDS011;55638;51.122;13.606;2023-07-08T08:39:46;2.53;;;2.33;;
68655;SDS011;55638;51.122;13.606;2023-07-08T08:41:19;3.08;;;2.40;;
68655;SDS011;55638;51.122;13.606;2023-07-08T08:44:35;2.15;;;1.95;;
68655;SDS011;55638;51.122;13.606;2023-07-08T08:48:03;2.70;;;2.20;;
68655;SDS011;55638;51.122;13.606;2023-07-08T08:49:41;2.90;;;1.90;;
68655;SDS011;55638;51.122;13.606;2023-07-08T08:51:18;2.50;;;2.25;;
68655;SDS011;55638;51.122;13.606;2023-07-08T08:52:51;2.40;;;2.20;;
68655;SDS011;55638;51.122;13.606;2023-07-08T08:54:26;2.42;;;2.22;;
68655;SDS011;55638;51.122;13.606;2023-07-08T08:56:18;2.38;;;2.17;;
68655;SDS011;55638;51.122;13.606;2023-07-08T08:58:40;2.20;;;2.00;;
68655;SDS011;55638;51.122;13.606;2023-07-08T09:00:04;2.30;;;2.10;;
68655;SDS011;55638;51.122;13.606;2023-07-08T09:01:40;3.08;;;2.30;;
68655;SDS011;55638;51.122;13.606;2023-07-08T09:03:16;2.72;;;2.53;;
68655;SDS011;55638;51.122;13.606;2023-07-08T09:04:49;2.65;;;2.45;;
68655;SDS011;55638;51.122;13.606;2023-07-08T09:06:28;2.20;;;1.98;;
68655;SDS011;55638;51.122;13.606;2023-07-08T09:09:49;2.42;;;2.05;;
68655;SDS011;55638;51.122;13.606;2023-07-08T09:13:32;2.55;;;2.30;;
68655;SDS011;55638;51.122;13.606;2023-07-08T09:15:14;2.78;;;2.10;;
68655;SDS011;55638;51.122;13.606;2023-07-08T09:16:52;3.90;;;2.50;;
68655;SDS011;55638;51.122;13.606;2023-07-08T09:18:39;2.53;;;2.10;;
68655;SDS011;55638;51.122;13.606;2023-07-08T09:21:59;2.55;;;2.35;;
68655;SDS011;55638;51.122;13.606;2023-07-08T09:23:36;2.75;;;2.55;;
68655;SDS011;55638;51.122;13.606;2023-07-08T09:26:46;2.58;;;2.38;;
68655;SDS011;55638;51.122;13.606;2023-07-08T09:28:34;2.45;;;2.25;;
68655;SDS011;55638;51.122;13.606;2023-07-08T09:30:15;3.60;;;2.70;;
68655;SDS011;55638;51.122;13.606;2023-07-08T09:31:49;2.33;;;2.13;;
68655;SDS011;55638;51.122;13.606;2023-07-08T09:33:21;2.58;;;2.25;;
68655;SDS011;55638;51.122;13.606;2023-07-08T09:34:57;2.40;;;2.20;;